createdAt,value
2018-01-11T00:02:01.141Z,97.90
2018-01-11T00:04:27.601Z,97.90
2018-01-11T00:06:54.079Z,98.10
2018-01-11T00:09:20.586Z,98.10
2018-01-11T00:11:47.048Z,98.20
2018-01-11T00:14:13.474Z,98.30
2018-01-11T00:16:40.682Z,98.50
2018-01-11T00:19:07.163Z,98.50
2018-01-11T00:21:33.886Z,98.50
2018-01-11T00:24:00.379Z,98.50
2018-01-11T00:26:26.888Z,98.50
2018-01-11T00:28:54.103Z,98.50
2018-01-11T00:31:20.578Z,98.40
2018-01-11T00:33:47.050Z,98.50
2018-01-11T00:36:13.528Z,98.50
2018-01-11T00:38:40.730Z,98.50
2018-01-11T00:41:07.210Z,98.50
2018-01-11T00:43:33.687Z,98.40
2018-01-11T00:46:00.155Z,98.40
2018-01-11T00:48:27.661Z,98.30
2018-01-11T00:50:54.139Z,98.50
2018-01-11T00:53:20.623Z,98.10
2018-01-11T00:55:47.122Z,98.10
2018-01-11T00:58:14.348Z,98.10
2018-01-11T01:00:40.816Z,98.10
2018-01-11T01:03:08.037Z,98.10
2018-01-11T01:05:34.537Z,98.10
2018-01-11T01:08:00.995Z,98.20
2018-01-11T01:10:27.516Z,98.10
2018-01-11T01:12:54.003Z,98.10
2018-01-11T01:15:20.508Z,98.20
2018-01-11T01:17:47.692Z,98.30
2018-01-11T01:20:14.178Z,98.30
2018-01-11T01:22:40.644Z,98.40
2018-01-11T01:25:07.117Z,98.50
2018-01-11T01:27:33.580Z,98.40
2018-01-11T01:30:00.051Z,98.40
2018-01-11T01:32:26.553Z,98.20
2018-01-11T01:34:53.005Z,98.10
2018-01-11T01:37:19.481Z,98.00
2018-01-11T01:39:45.937Z,98.00
2018-01-11T01:42:12.440Z,97.90
2018-01-11T01:44:39.614Z,97.90
2018-01-11T01:47:06.802Z,97.80
2018-01-11T01:49:33.271Z,97.80
2018-01-11T01:51:59.803Z,97.80
2018-01-11T01:54:26.991Z,97.70
2018-01-11T01:56:53.475Z,97.90
2018-01-11T01:59:20.224Z,98.00
2018-01-11T02:01:46.699Z,98.00
2018-01-11T02:04:13.176Z,98.10
2018-01-11T02:06:39.670Z,98.40
2018-01-11T02:09:07.822Z,98.70
2018-01-11T02:11:34.326Z,98.70
2018-01-11T02:14:01.576Z,98.70
2018-01-11T02:16:28.019Z,98.70
2018-01-11T02:18:54.477Z,98.80
2018-01-11T02:21:20.925Z,99.00
2018-01-11T02:23:47.417Z,98.90
2018-01-11T02:26:14.638Z,99.00
2018-01-11T02:28:41.100Z,98.90
2018-01-11T02:31:07.580Z,99.10
2018-01-11T02:33:34.049Z,99.00
2018-01-11T02:36:01.298Z,98.90
2018-01-11T02:38:27.761Z,98.90
2018-01-11T02:40:54.221Z,99.20
2018-01-11T02:43:20.685Z,98.90
2018-01-11T02:45:47.158Z,98.90
2018-01-11T02:48:14.343Z,98.90
2018-01-11T02:50:40.809Z,98.90
2018-01-11T02:53:07.291Z,98.90
2018-01-11T02:55:34.574Z,98.50
2018-01-11T02:58:01.026Z,98.50
2018-01-11T03:00:28.475Z,98.60
2018-01-11T03:02:54.903Z,98.90
2018-01-11T03:05:22.155Z,98.70
2018-01-11T03:07:48.698Z,98.60
2018-01-11T03:10:15.212Z,98.50
2018-01-11T03:12:42.483Z,98.20
2018-01-11T03:15:09.711Z,98.00
2018-01-11T03:17:36.209Z,98.00
2018-01-11T03:20:03.489Z,97.90
2018-01-11T03:22:30.763Z,98.00
2018-01-11T03:24:58.037Z,98.00
2018-01-11T03:27:25.231Z,97.90
2018-01-11T03:29:51.768Z,97.90
2018-01-11T03:32:19.044Z,98.30
2018-01-11T03:34:46.208Z,98.00
2018-01-11T03:37:13.409Z,98.10
2018-01-11T03:39:39.872Z,98.00
2018-01-11T03:42:06.401Z,98.10
2018-01-11T03:44:32.865Z,98.20
2018-01-11T03:46:59.415Z,98.30
2018-01-11T03:49:27.154Z,98.40
2018-01-11T03:51:53.623Z,98.40
2018-01-11T03:54:20.109Z,98.50
2018-01-11T03:56:47.340Z,98.60
2018-01-11T03:59:13.838Z,98.50
2018-01-11T04:03:59.573Z,98.20
2018-01-11T04:06:26.083Z,98.40
2018-01-11T04:08:52.538Z,98.40
2018-01-11T04:11:19.217Z,98.30
2018-01-11T04:13:45.705Z,98.30
2018-01-11T04:16:12.158Z,98.30
2018-01-11T04:18:38.652Z,98.50
2018-01-11T04:21:05.131Z,98.40
2018-01-11T04:23:31.582Z,98.20
2018-01-11T04:25:58.023Z,98.10
2018-01-11T04:28:24.503Z,98.20
2018-01-11T04:30:50.987Z,98.60
2018-01-11T04:33:17.447Z,98.10
2018-01-11T04:35:43.944Z,98.10
2018-01-11T04:38:10.404Z,98.00
2018-01-11T04:40:36.908Z,98.00
2018-01-11T04:43:03.383Z,98.00
2018-01-11T04:45:29.926Z,98.00
2018-01-11T04:47:57.162Z,98.10
2018-01-11T04:50:23.651Z,98.40
2018-01-11T04:52:50.855Z,98.20
2018-01-11T04:55:18.141Z,98.30
2018-01-11T04:57:45.400Z,98.40
2018-01-11T05:00:11.892Z,98.30
2018-01-11T05:02:38.352Z,98.50
2018-01-11T05:05:04.832Z,98.50
2018-01-11T05:08:02.095Z,98.20
2018-01-11T05:10:28.546Z,98.30
2018-01-11T05:12:55.081Z,98.30
2018-01-11T05:15:21.595Z,98.20
2018-01-11T05:17:48.058Z,98.20
2018-01-11T05:20:15.285Z,98.00
2018-01-11T05:22:41.774Z,97.90
2018-01-11T05:25:09.003Z,97.80
2018-01-11T05:27:35.505Z,97.80
2018-01-11T05:30:01.955Z,97.70
2018-01-11T05:32:29.175Z,98.30
2018-01-11T05:34:55.654Z,97.80
2018-01-11T05:37:22.206Z,97.80
2018-01-11T05:39:48.770Z,97.80
2018-01-11T05:42:15.234Z,97.90
2018-01-11T05:44:41.738Z,97.90
2018-01-11T05:47:08.942Z,98.30
2018-01-11T05:49:35.419Z,98.30
2018-01-11T05:52:01.915Z,98.50
2018-01-11T05:54:29.147Z,98.40
2018-01-11T05:56:55.619Z,98.40
2018-01-11T05:59:22.084Z,98.70
2018-01-11T06:01:48.556Z,98.50
2018-01-11T06:04:15.800Z,98.60
2018-01-11T06:06:42.252Z,98.60
2018-01-11T06:09:09.490Z,98.60
2018-01-11T06:11:35.950Z,98.60
2018-01-11T06:14:02.425Z,98.60
2018-01-11T06:16:28.909Z,98.60
2018-01-11T06:18:55.441Z,98.70
2018-01-11T06:21:22.112Z,98.80
2018-01-11T06:23:48.698Z,98.70
2018-01-11T06:26:15.364Z,98.60
2018-01-11T06:28:42.001Z,98.40
2018-01-11T06:31:08.634Z,98.30
2018-01-11T06:33:35.168Z,98.30
2018-01-11T06:36:01.807Z,98.30
2018-01-11T06:38:29.161Z,98.10
2018-01-11T06:40:55.797Z,98.10
2018-01-11T06:43:22.434Z,98.10
2018-01-11T06:45:49.072Z,98.10
2018-01-11T06:48:16.474Z,98.20
2018-01-11T06:50:43.062Z,98.20
2018-01-11T06:53:09.701Z,98.10
2018-01-11T06:55:36.337Z,98.00
2018-01-11T06:58:02.973Z,98.00
2018-01-11T07:00:29.614Z,98.20
2018-01-11T07:02:56.247Z,98.40
2018-01-11T07:05:22.855Z,98.10
2018-01-11T07:07:50.238Z,98.30
2018-01-11T07:10:17.592Z,98.10
2018-01-11T07:12:44.126Z,98.00
2018-01-11T07:15:10.764Z,98.00
2018-01-11T07:17:37.299Z,97.90
2018-01-11T07:20:04.877Z,97.70
2018-01-11T07:22:31.492Z,97.70
2018-01-11T07:24:58.132Z,97.70
2018-01-11T07:27:24.768Z,97.50
2018-01-11T07:29:51.406Z,97.60
2018-01-11T07:32:18.656Z,97.90
2018-01-11T07:34:45.294Z,97.80
2018-01-11T07:37:12.032Z,97.70
2018-01-11T07:39:38.672Z,97.50
2018-01-11T07:42:05.923Z,97.20
2018-01-11T07:44:32.457Z,97.20
2018-01-11T07:46:59.097Z,97.10
2018-01-11T07:49:25.833Z,97.10
2018-01-11T07:51:53.185Z,97.10
2018-01-11T07:54:19.926Z,97.10
2018-01-11T07:56:47.280Z,97.00
2018-01-11T07:59:13.916Z,97.10
2018-01-11T08:01:40.554Z,96.90
2018-01-11T08:04:07.907Z,97.10
2018-01-11T08:06:34.545Z,97.10
2018-01-11T08:09:01.181Z,97.50
2018-01-11T08:11:27.819Z,97.20
2018-01-11T08:13:54.455Z,95.20
2018-01-11T08:16:21.095Z,92.70
2018-01-11T08:18:47.730Z,90.10
2018-01-11T08:21:14.366Z,85.80
2018-01-11T08:23:41.820Z,79.40
2018-01-11T08:26:08.563Z,79.40
2018-01-11T08:28:35.609Z,76.50
2018-01-11T08:31:02.247Z,72.70
2018-01-11T08:33:29.081Z,67.00
2018-01-11T08:35:55.827Z,65.00
2018-01-11T08:38:22.764Z,64.00
2018-01-11T08:40:49.408Z,59.90
2018-01-11T08:43:16.238Z,57.50
2018-01-11T08:45:42.876Z,54.50
2018-01-11T08:48:09.611Z,52.40
2018-01-11T08:50:36.265Z,50.70
2018-01-11T08:53:03.085Z,49.30
2018-01-11T08:55:29.537Z,47.90
2018-01-11T08:57:58.576Z,45.60
2018-01-11T09:00:25.888Z,44.70
2018-01-11T09:02:52.622Z,44.60
2018-01-11T09:05:19.456Z,44.00
2018-01-11T09:07:46.818Z,41.70
2018-01-11T09:10:13.966Z,41.70
2018-01-11T09:12:40.707Z,40.70
2018-01-11T09:15:07.959Z,40.00
2018-01-11T09:17:35.415Z,38.60
2018-01-11T09:20:03.076Z,38.10
2018-01-11T09:22:29.815Z,38.10
2018-01-11T09:24:56.452Z,37.50
2018-01-11T09:27:23.090Z,37.00
2018-01-11T09:29:50.634Z,36.20
2018-01-11T09:32:17.284Z,36.10
2018-01-11T09:34:43.924Z,36.00
2018-01-11T09:37:10.752Z,35.90
2018-01-11T09:39:37.609Z,36.20
2018-01-11T09:42:04.447Z,36.20
2018-01-11T09:44:31.083Z,36.00
2018-01-11T09:46:57.804Z,36.20
2018-01-11T09:49:24.664Z,37.60
2018-01-11T09:51:51.404Z,39.50
2018-01-11T09:54:18.144Z,41.40
2018-01-11T09:56:44.811Z,43.70
2018-01-11T09:59:11.517Z,46.20
2018-01-11T10:01:38.361Z,49.30
2018-01-11T10:04:05.102Z,52.20
2018-01-11T10:06:31.738Z,54.80
2018-01-11T10:08:58.572Z,57.80
2018-01-11T10:11:25.524Z,59.70
2018-01-11T10:13:53.084Z,63.10
2018-01-11T10:16:19.823Z,63.10
2018-01-11T10:18:46.561Z,65.10
2018-01-11T10:21:15.044Z,68.90
2018-01-11T10:23:41.581Z,68.90
2018-01-11T10:26:08.213Z,70.40
2018-01-11T10:28:34.849Z,71.20
2018-01-11T10:31:01.488Z,72.70
2018-01-11T10:33:28.842Z,75.70
2018-01-11T10:35:56.790Z,75.60
2018-01-11T10:38:23.446Z,77.20
2018-01-11T10:40:51.005Z,79.30
2018-01-11T10:43:18.565Z,79.50
2018-01-11T10:45:45.201Z,79.50
2018-01-11T10:48:13.170Z,80.00
2018-01-11T10:50:40.728Z,80.00
2018-01-11T10:53:09.532Z,81.00
2018-01-11T10:55:36.090Z,81.60
2018-01-11T10:58:03.466Z,82.80
2018-01-11T11:00:36.161Z,82.80
2018-01-11T11:03:03.540Z,83.40
2018-01-11T11:05:30.723Z,83.20
2018-01-11T11:07:57.176Z,83.20
2018-01-11T11:10:23.694Z,83.20
2018-01-11T11:12:50.152Z,83.00
2018-01-11T11:15:16.610Z,83.50
2018-01-11T11:17:43.080Z,84.00
2018-01-11T11:20:10.288Z,84.20
2018-01-11T11:22:36.771Z,84.20
2018-01-11T11:25:03.383Z,83.90
2018-01-11T11:27:30.657Z,84.80
2018-01-11T11:29:57.931Z,84.80
2018-01-11T11:32:25.659Z,84.80
2018-01-11T11:34:52.176Z,84.80
2018-01-11T11:37:18.732Z,84.20
2018-01-11T11:41:25.540Z,84.50
2018-01-11T11:43:52.012Z,84.70
2018-01-11T11:46:18.453Z,85.20
2018-01-11T11:48:44.929Z,85.30
2018-01-11T11:51:11.383Z,85.20
2018-01-11T11:53:37.839Z,84.80
2018-01-11T11:56:05.037Z,83.90
2018-01-11T11:58:31.567Z,83.80
2018-01-11T12:00:58.121Z,83.70
2018-01-11T12:03:24.597Z,83.70
2018-01-11T12:05:51.101Z,84.10
2018-01-11T12:08:18.324Z,84.70
2018-01-11T12:10:44.844Z,84.70
2018-01-11T12:13:11.293Z,84.70
2018-01-11T12:15:38.497Z,83.70
2018-01-11T12:18:04.976Z,83.60
2018-01-11T12:20:31.480Z,83.80
2018-01-11T12:22:58.706Z,83.90
2018-01-11T12:25:25.919Z,83.60
2018-01-11T12:27:53.126Z,83.40
2018-01-11T12:30:19.616Z,83.40
2018-01-11T12:32:46.067Z,83.50
2018-01-11T12:35:16.211Z,83.70
2018-01-11T12:37:42.689Z,83.80
2018-01-11T12:40:09.866Z,84.10
2018-01-11T12:42:37.153Z,84.50
2018-01-11T12:45:04.893Z,84.60
2018-01-11T12:47:31.398Z,84.50
2018-01-11T12:49:57.978Z,84.50
2018-01-11T12:52:24.618Z,85.10
2018-01-11T12:54:51.895Z,85.70
2018-01-11T12:57:18.451Z,85.70
2018-01-11T12:59:44.872Z,85.70
2018-01-11T13:02:11.328Z,85.30
2018-01-11T13:04:37.921Z,84.80
2018-01-11T13:07:05.294Z,85.30
2018-01-11T13:09:32.544Z,85.50
2018-01-11T13:11:59.022Z,85.60
2018-01-11T13:14:26.301Z,86.30
2018-01-11T13:16:53.575Z,86.60
2018-01-11T13:19:20.235Z,86.50
2018-01-11T13:21:47.509Z,86.60
2018-01-11T13:24:14.748Z,86.60
2018-01-11T13:26:41.217Z,86.50
2018-01-11T13:29:07.640Z,86.80
2018-01-11T13:31:34.840Z,86.90
2018-01-11T13:34:01.358Z,86.90
2018-01-11T13:36:28.089Z,87.00
2018-01-11T13:38:55.124Z,86.90
2018-01-11T13:41:21.613Z,86.90
2018-01-11T13:43:48.836Z,86.00
2018-01-11T13:46:15.330Z,86.10
2018-01-11T13:48:42.594Z,86.10
2018-01-11T13:51:09.058Z,86.00
2018-01-11T13:53:36.351Z,85.10
2018-01-11T13:56:03.605Z,84.90
2018-01-11T13:58:30.362Z,84.90
2018-01-11T14:00:56.949Z,84.60
2018-01-11T14:03:23.509Z,84.60
2018-01-11T14:05:50.026Z,84.70
2018-01-11T14:08:16.531Z,85.10
2018-01-11T14:10:43.043Z,85.40
2018-01-11T14:13:09.636Z,86.00
2018-01-11T14:15:36.194Z,86.50
2018-01-11T14:18:03.572Z,87.50
2018-01-11T14:20:30.957Z,88.00
2018-01-11T14:22:57.616Z,88.00
2018-01-11T14:25:24.167Z,88.50
2018-01-11T14:27:51.544Z,89.20
2018-01-11T14:30:18.105Z,89.20
2018-01-11T14:32:44.662Z,89.60
2018-01-11T14:35:11.322Z,90.30
2018-01-11T14:37:38.596Z,90.40
2018-01-11T14:40:05.837Z,90.70
2018-01-11T14:42:33.825Z,90.90
2018-01-11T14:45:00.293Z,90.90
2018-01-11T14:47:26.795Z,91.10
2018-01-11T14:49:53.332Z,90.90
2018-01-11T14:52:20.811Z,91.60
2018-01-11T14:54:48.086Z,91.70
2018-01-11T14:57:15.324Z,92.10
2018-01-11T14:59:41.850Z,92.10
2018-01-11T15:02:08.317Z,92.20
2018-01-11T15:04:34.777Z,92.50
2018-01-11T15:07:01.291Z,92.70
2018-01-11T15:09:27.760Z,92.80
2018-01-11T15:11:54.278Z,93.00
2018-01-11T15:14:20.862Z,93.10
2018-01-11T15:16:48.150Z,92.80
2018-01-11T15:19:15.206Z,92.80
2018-01-11T15:21:42.581Z,93.00
2018-01-11T15:24:09.959Z,93.10
2018-01-11T15:26:37.245Z,93.20
2018-01-11T15:29:03.737Z,93.20
2018-01-11T15:31:30.195Z,93.40
2018-01-11T15:33:56.665Z,93.70
2018-01-11T15:36:23.186Z,93.80
2018-01-11T15:38:49.676Z,94.00
2018-01-11T15:41:16.157Z,94.10
2018-01-11T15:43:43.406Z,94.70
2018-01-11T15:46:09.876Z,94.60
2018-01-11T15:48:36.343Z,94.90
2018-01-11T15:51:02.892Z,94.90
2018-01-11T15:53:29.419Z,94.90
2018-01-11T15:55:55.907Z,94.90
2018-01-11T15:58:22.400Z,95.20
2018-01-11T16:00:48.886Z,94.70
2018-01-11T16:03:15.450Z,94.80
2018-01-11T16:05:41.940Z,95.00
2018-01-11T16:08:08.435Z,95.00
2018-01-11T16:10:34.899Z,95.00
2018-01-11T16:13:01.376Z,95.00
2018-01-11T16:15:27.852Z,95.00
2018-01-11T16:17:54.332Z,95.40
2018-01-11T16:20:21.509Z,95.20
2018-01-11T16:22:48.752Z,95.20
2018-01-11T16:25:15.273Z,95.20
2018-01-11T16:27:41.777Z,95.30
2018-01-11T16:30:08.297Z,95.30
2018-01-11T16:32:34.765Z,95.10
2018-01-11T16:35:01.261Z,95.00
2018-01-11T16:37:27.718Z,95.10
2018-01-11T16:39:54.212Z,95.10
2018-01-11T16:42:20.767Z,95.00
2018-01-11T16:44:47.268Z,95.00
2018-01-11T16:47:13.768Z,94.80
2018-01-11T16:49:40.235Z,94.90
2018-01-11T16:52:06.709Z,94.90
2018-01-11T16:54:33.553Z,94.90
2018-01-11T16:57:00.052Z,95.00
2018-01-11T16:59:26.537Z,95.10
2018-01-11T17:01:53.017Z,95.00
2018-01-11T17:04:19.464Z,95.10
2018-01-11T17:06:46.834Z,95.20
2018-01-11T17:09:14.046Z,95.30
2018-01-11T17:11:40.580Z,95.20
2018-01-11T17:14:08.569Z,95.30
2018-01-11T17:16:35.115Z,95.30
2018-01-11T17:19:02.370Z,95.20
2018-01-11T17:21:28.959Z,95.20
2018-01-11T17:23:56.263Z,95.70
2018-01-11T17:26:22.917Z,95.30
2018-01-11T17:28:49.433Z,95.30
2018-01-11T17:31:16.088Z,95.40
2018-01-11T17:33:43.019Z,95.50
2018-01-11T17:36:09.672Z,95.60
2018-01-11T17:38:36.205Z,95.50
2018-01-11T17:41:03.036Z,95.50
2018-01-11T17:43:29.785Z,95.60
2018-01-11T17:45:56.820Z,95.60
2018-01-11T17:48:23.676Z,95.70
2018-01-11T17:50:50.316Z,95.70
2018-01-11T17:53:16.954Z,95.70
2018-01-11T17:55:43.793Z,95.70
2018-01-11T17:58:10.429Z,95.70
2018-01-11T18:00:37.254Z,95.70
2018-01-11T18:03:04.114Z,95.70
2018-01-11T18:05:31.466Z,95.80
2018-01-11T18:07:58.312Z,95.90
2018-01-11T18:10:25.048Z,95.80
2018-01-11T18:12:51.985Z,95.80
2018-01-11T18:15:19.636Z,95.80
2018-01-11T18:17:46.377Z,95.80
2018-01-11T18:20:13.136Z,95.80
2018-01-11T18:22:40.062Z,95.80
2018-01-11T18:25:07.022Z,95.70
2018-01-11T18:27:34.989Z,95.80
2018-01-11T18:30:01.727Z,95.80
2018-01-11T18:32:29.285Z,96.20
2018-01-11T18:34:56.156Z,95.90
2018-01-11T18:37:23.129Z,95.80
2018-01-11T18:39:49.914Z,95.80
2018-01-11T18:42:16.760Z,95.90
2018-01-11T18:44:43.379Z,95.80
2018-01-11T18:47:10.014Z,95.90
2018-01-11T18:49:36.671Z,96.10
2018-01-11T18:52:03.359Z,95.80
2018-01-11T18:54:30.747Z,95.90
2018-01-11T18:56:58.008Z,95.80
2018-01-11T18:59:24.750Z,95.80
2018-01-11T19:01:51.390Z,95.80
2018-01-11T19:04:18.030Z,96.00
2018-01-11T19:06:44.681Z,96.10
2018-01-11T19:09:11.283Z,96.20
2018-01-11T19:11:38.640Z,96.10
2018-01-11T19:14:05.175Z,96.10
2018-01-11T19:16:31.723Z,96.10
2018-01-11T19:18:59.078Z,96.00
2018-01-11T19:21:25.630Z,96.00
2018-01-11T19:23:52.195Z,96.30
2018-01-11T19:26:18.784Z,96.10
2018-01-11T19:28:46.069Z,96.10
2018-01-11T19:31:12.672Z,96.10
2018-01-11T19:33:39.459Z,96.00
2018-01-11T19:36:09.453Z,96.00
2018-01-11T19:38:40.409Z,96.00
2018-01-11T19:41:07.142Z,95.90
2018-01-11T19:43:33.752Z,95.90
2018-01-11T19:46:04.456Z,95.90
2018-01-11T19:48:31.207Z,95.80
2018-01-11T19:50:58.405Z,95.90
2018-01-11T19:53:25.415Z,95.90
2018-01-11T19:55:51.983Z,96.00
2018-01-11T19:58:18.514Z,96.00
2018-01-11T20:00:45.318Z,96.10
2018-01-11T20:03:12.530Z,96.20
2018-01-11T20:05:39.134Z,96.20
2018-01-11T20:08:05.607Z,96.30
2018-01-11T20:10:32.233Z,96.40
2018-01-11T20:12:58.747Z,96.40
2018-01-11T20:15:25.283Z,96.60
2018-01-11T20:17:52.620Z,96.60
2018-01-11T20:20:19.997Z,96.60
2018-01-11T20:22:48.130Z,96.80
2018-01-11T20:25:14.886Z,96.90
2018-01-11T20:27:42.224Z,97.10
2018-01-11T20:30:08.905Z,97.10
2018-01-11T20:32:37.193Z,97.10
2018-01-11T20:35:03.725Z,97.10
2018-01-11T20:37:30.650Z,97.10
2018-01-11T20:39:57.251Z,97.10
2018-01-11T20:42:23.754Z,97.30
2018-01-11T20:44:51.004Z,97.30
2018-01-11T20:47:18.295Z,97.30
2018-01-11T20:49:46.761Z,97.30
2018-01-11T20:52:13.766Z,97.30
2018-01-11T20:54:43.039Z,97.20
2018-01-11T20:57:10.955Z,97.20
2018-01-11T20:59:37.611Z,97.30
2018-01-11T21:02:05.812Z,97.10
2018-01-11T21:04:33.641Z,97.00
2018-01-11T21:07:01.178Z,97.40
2018-01-11T21:09:28.102Z,97.40
2018-01-11T21:11:54.761Z,97.60
2018-01-11T21:14:22.243Z,97.70
2018-01-11T21:16:48.953Z,97.50
2018-01-11T21:19:15.734Z,97.50
2018-01-11T21:21:42.357Z,97.50
2018-01-11T21:24:09.416Z,97.40
2018-01-11T21:26:37.383Z,97.40
2018-01-11T21:29:04.226Z,97.20
2018-01-11T21:31:31.552Z,97.50
2018-01-11T21:33:58.521Z,97.50
2018-01-11T21:36:25.864Z,97.50
2018-01-11T21:38:57.534Z,97.40
2018-01-11T21:41:24.580Z,97.40
2018-01-11T21:43:52.219Z,97.40
2018-01-11T21:46:20.720Z,97.30
2018-01-11T21:48:47.566Z,97.20
2018-01-11T21:51:14.814Z,97.20
2018-01-11T21:53:42.576Z,97.20
2018-01-11T21:56:10.135Z,97.20
2018-01-11T21:58:38.105Z,97.20
2018-01-11T22:01:04.933Z,97.30
2018-01-11T22:03:31.685Z,97.30
2018-01-11T22:05:59.123Z,97.30
2018-01-11T22:08:25.777Z,97.30
2018-01-11T22:10:52.518Z,97.20
2018-01-11T22:13:19.974Z,97.20
2018-01-11T22:15:46.708Z,97.20
2018-01-11T22:18:13.351Z,97.10
2018-01-11T22:20:40.193Z,97.10
2018-01-11T22:23:07.035Z,97.10
2018-01-11T22:25:34.497Z,97.60
2018-01-11T22:28:02.460Z,97.20
2018-01-11T22:30:29.808Z,97.20
2018-01-11T22:32:56.844Z,97.30
2018-01-11T22:35:23.598Z,97.30
2018-01-11T22:37:51.566Z,97.30
2018-01-11T22:40:18.615Z,97.30
2018-01-11T22:42:45.764Z,97.30
2018-01-11T22:45:12.507Z,97.40
2018-01-11T22:47:39.857Z,97.70
2018-01-11T22:50:07.415Z,97.40
2018-01-11T22:52:34.369Z,97.40
2018-01-11T22:55:02.200Z,97.40
2018-01-11T22:57:29.684Z,97.40
2018-01-11T22:59:56.304Z,97.30
2018-01-11T23:02:23.184Z,97.20
2018-01-11T23:04:50.051Z,97.20
2018-01-11T23:07:16.741Z,97.20
2018-01-11T23:09:43.785Z,97.20
2018-01-11T23:12:11.449Z,97.20
2018-01-11T23:14:38.292Z,97.10
2018-01-11T23:17:05.093Z,97.00
2018-01-11T23:19:31.573Z,96.80
2018-01-11T23:21:58.990Z,96.80
2018-01-11T23:24:25.760Z,96.80
2018-01-11T23:26:53.418Z,96.70
2018-01-11T23:29:20.857Z,96.70
2018-01-11T23:31:47.617Z,96.70
2018-01-11T23:34:14.173Z,96.50
2018-01-11T23:36:40.990Z,96.40
2018-01-11T23:39:07.530Z,96.40
2018-01-11T23:41:34.986Z,96.60
2018-01-11T23:44:03.158Z,96.60
2018-01-11T23:46:30.818Z,96.80
2018-01-11T23:48:57.871Z,96.80
2018-01-11T23:51:26.553Z,96.90
2018-01-11T23:53:53.804Z,96.90
2018-01-11T23:56:21.260Z,97.30
2018-01-11T23:58:50.332Z,97.10
